Архив погоды в Грозном

Метеограмма Грозный
Вторник, 24 Апреля
Время местн. Темп Ветер Видим Явления Облачность нижн/средн/верх Атм. давл. Влжн Точка росы ВНГО R Сост. почвы Tg s
Напр Скр Прв ур.ст ур.м изм
09:00 +12.6° З 2 - 20 км небо без изменений {дождь} облачно 743 766 +1.4 88% +10.7° 1.5 км - - - -
06:00 +8.1° Ю-З 1 - 4 км слабый непрерывный дождь облачно 741 765 +0.9 96% +7.5° - - Влажная (без луж) - -
03:00 +8.7° Ю,Ю-З 2 - 4 км слабый непрерывный дождь облачно 740 764 0 95% +7.9° 600 м - - - -
00:00 +9.9° Ю,Ю-З 2 - 4 км слабый дождь с перерывами облачно 740 764 +0.5 92% +8.7° - - - - -
Понедельник, 23 Апреля
Время местн. Темп Ветер Видим Явления Облачность нижн/средн/верх Атм. давл. Влжн Точка росы ВНГО R Сост. почвы Tg s
Напр Скр Прв ур.ст ур.м изм
21:00 +11° Ю 1 - 4 км слабый дождь с перерывами облачно 740 763 +3.3 81% +7.9° - - - - -
18:00 +14.7° В 1 - 20 км - облачно 736 759 +0.8 66% +8.4° 1.5 км - - - -
15:00 +17° З 3 - 20 км - преимущественно облачно 736 758 -1.1 46% +5.4° 1 км - - - -
12:00 +16.4° З,С-З 3 - 20 км - облачно 737 759 -0.3 47% +5.1° 1.5 км - - - -
09:00 +15° З,С-З 2 - 20 км - облачно 737 760 +0.8 59% +7.1° 1 км - - - -
06:00 +11.8° В,Ю-В 1 - 20 км - облачно 736 759 +0.5 76% +7.7° 1.5 км 0 Сухая (без трещин) +11° -
03:00 +12.1° З,Ю-З 1 - 10 км - облачно 736 759 -0.1 78% +8.3° 1 км - - - -
00:00 +13.8° В 1 - 10 км - облачно 736 759 +0.4 65% +7.3° 1 км - - - -
Воскресенье, 22 Апреля
Время местн. Темп Ветер Видим Явления Облачность нижн/средн/верх Атм. давл. Влжн Точка росы ВНГО R Сост. почвы Tg s
Напр Скр Прв ур.ст ур.м изм
21:00 +13° В 1 - 10 км - облачно 735 759 +1.8 64% +6.3° 1 км - - - -
18:00 +18.5° Ю-В 1 - 20 км - ясно 734 756 +0.4 43% +5.6° более 2.5 км 0 - - -
15:00 +21° Ю 2 - 20 км - переменная облачность 733 756 -0.9 37% +5.6° - - - - -
12:00 +18.5° Ю-З 2 - 20 км - ясно 734 757 -1.8 45% +6.2° более 2.5 км - - - -
09:00 +13.6° З,Ю-З 2 - 20 км - ясно 736 759 -0.8 71% +8.4° более 2.5 км - - - -
06:00 +6.1° Ю 1 - 20 км - ясно 737 760 -0.3 94% +5.2° более 2.5 км 0 Сухая (без трещин) +4° -
03:00 +6.8° Ю-В 1 - 10 км - ясно 737 760 -0.7 93% +5.7° более 2.5 км - - - -
00:00 +10° Ю-В 1 - 10 км - облачно с прояснениями 738 761 -0.5 90% +8.4° - - - - -
Суббота, 21 Апреля
Время местн. Темп Ветер Видим Явления Облачность нижн/средн/верх Атм. давл. Влжн Точка росы ВНГО R Сост. почвы Tg s
Напр Скр Прв ур.ст ур.м изм
21:00 +11.5° Ю-З 1 - 10 км - облачно 738 762 +0.9 84% +8.9° 1 км - - - -
18:00 +12.2° З,С-З 3 - 20 км - переменная облачность 737 760 +0.8 68% +6.5° - - - - -
15:00 +15.9° З,С-З 4 - 20 км - переменная облачность 737 760 -0.5 57% +7.5° 1.5 км - - - -
12:00 +13.3° З 5 - 20 км - облачно 737 760 0 60% +5.7° 1 км - - - -
09:00 +12.7° З,Ю-З 2 - 10 км - облачно 737 760 +0.9 75% +8.3° 1 км - - - -
06:00 +8° З,Ю-З 2 - 20 км - облачно 736 759 +0.7 93% +6.9° 1 км - Влажная (без луж) - -